Time;durP1;ratioP1;P1;durP2;ratioP2;P2;SDS_P1;SDS_P2;PMS_P1;PMS_P2;Temp;Humidity;BMP_temperature;BMP_pressure;BME280_temperature;BME280_humidity;BME280_pressure;Samples;Min_cycle;Max_cycle;Signal;HPM_P1;HPM_P2
2022/09/13 00:01:38;;;;;;;8.68;3.97;;;;;;;;;;5073024;28;20226;-17
2022/09/13 00:04:05;;;;;;;5.25;4.30;;;;;;;;;;5072353;28;20222;-17
2022/09/13 00:06:33;;;;;;;6.05;4.25;;;;;;;;;;5072676;28;20241;-17
2022/09/13 00:09:00;;;;;;;4.65;3.85;;;;;;;;;;5072547;28;20226;-17
2022/09/13 00:11:28;;;;;;;8.52;4.35;;;;;;;;;;5072903;28;20681;-17
2022/09/13 00:13:56;;;;;;;5.45;3.92;;;;;;;;;;5071382;28;20241;-16
2022/09/13 00:16:24;;;;;;;5.65;4.57;;;;;;;;;;5071912;28;20807;-17
2022/09/13 00:18:52;;;;;;;6.30;4.28;;;;;;;;;;5071307;28;20218;-17
2022/09/13 00:21:19;;;;;;;5.20;4.05;;;;;;;;;;5072305;28;20238;-17
2022/09/13 00:23:47;;;;;;;8.07;4.55;;;;;;;;;;5071872;28;20319;-17
2022/09/13 00:26:15;;;;;;;4.22;3.83;;;;;;;;;;5072161;28;20229;-17
2022/09/13 00:28:44;;;;;;;5.20;4.18;;;;;;;;;;5071061;28;21319;-17
2022/09/13 00:31:12;;;;;;;5.35;4.78;;;;;;;;;;5072445;28;20766;-17
2022/09/13 00:33:40;;;;;;;4.35;3.95;;;;;;;;;;5072266;28;20241;-17
2022/09/13 00:36:08;;;;;;;4.78;3.88;;;;;;;;;;5071329;28;20260;-16
2022/09/13 00:38:35;;;;;;;6.93;4.35;;;;;;;;;;5071171;28;20675;-17
2022/09/13 00:41:03;;;;;;;5.55;4.10;;;;;;;;;;5072385;28;20234;-17
2022/09/13 00:43:40;;;;;;;5.15;4.30;;;;;;;;;;5072501;28;20951;-17
2022/09/13 00:46:08;;;;;;;5.13;4.43;;;;;;;;;;5071753;28;20260;-16
2022/09/13 00:48:36;;;;;;;4.53;3.92;;;;;;;;;;5072321;28;20212;-17
2022/09/13 00:51:04;;;;;;;7.25;4.20;;;;;;;;;;5071909;28;20701;-17
2022/09/13 00:53:32;;;;;;;4.80;3.80;;;;;;;;;;5071697;28;20280;-16
2022/09/13 00:56:00;;;;;;;5.97;4.35;;;;;;;;;;5051738;28;20261;-17
2022/09/13 00:58:29;;;;;;;7.15;4.70;;;;;;;;;;5051771;28;20264;-17
2022/09/13 01:00:57;;;;;;;4.93;4.20;;;;;;;;;;5057756;28;20684;-16
2022/09/13 01:03:24;;;;;;;5.03;4.15;;;;;;;;;;5070156;28;20321;-17
2022/09/13 01:05:54;;;;;;;5.53;4.47;;;;;;;;;;5070789;28;21036;-17
2022/09/13 01:08:22;;;;;;;4.75;4.35;;;;;;;;;;5061808;28;20305;-16
2022/09/13 01:10:49;;;;;;;4.82;4.43;;;;;;;;;;5070642;28;20584;-17
2022/09/13 01:13:18;;;;;;;6.55;3.72;;;;;;;;;;5069511;28;20260;-17
2022/09/13 01:15:45;;;;;;;4.68;4.13;;;;;;;;;;5070603;28;20229;-16
2022/09/13 01:18:12;;;;;;;6.50;4.30;;;;;;;;;;5071377;28;21179;-17
2022/09/13 01:20:46;;;;;;;4.72;4.18;;;;;;;;;;5071387;28;20320;-16
2022/09/13 01:23:22;;;;;;;6.70;4.47;;;;;;;;;;5071115;28;20299;-17
2022/09/13 01:26:11;;;;;;;4.80;4.32;;;;;;;;;;5071466;28;20672;-17
2022/09/13 01:29:02;;;;;;;10.25;4.30;;;;;;;;;;5017659;28;20254;-17
2022/09/13 01:31:32;;;;;;;5.22;4.32;;;;;;;;;;4987945;28;20766;-17
2022/09/13 01:34:02;;;;;;;8.48;4.25;;;;;;;;;;5071029;28;20271;-17
2022/09/13 01:36:44;;;;;;;5.03;4.20;;;;;;;;;;5070994;28;20230;-17
2022/09/13 01:39:12;;;;;;;4.70;4.30;;;;;;;;;;5070260;28;20280;-17
2022/09/13 01:41:47;;;;;;;5.00;4.10;;;;;;;;;;5071335;28;20256;-18
2022/09/13 01:44:17;;;;;;;4.93;4.53;;;;;;;;;;5071396;28;20212;-17
2022/09/13 01:46:46;;;;;;;5.32;4.25;;;;;;;;;;5070605;28;20237;-16
2022/09/13 01:49:15;;;;;;;5.07;4.40;;;;;;;;;;5071027;28;20700;-17
2022/09/13 01:51:43;;;;;;;4.55;4.05;;;;;;;;;;5071361;28;20301;-17
2022/09/13 01:54:15;;;;;;;5.93;4.30;;;;;;;;;;5070112;28;20777;-17
2022/09/13 01:56:43;;;;;;;5.63;4.70;;;;;;;;;;5070911;28;20864;-17
2022/09/13 01:59:11;;;;;;;4.68;4.18;;;;;;;;;;5070467;28;20701;-16
2022/09/13 02:01:39;;;;;;;7.13;4.53;;;;;;;;;;5070791;28;20716;-17
2022/09/13 02:04:09;;;;;;;5.03;4.55;;;;;;;;;;5071018;28;20214;-16
2022/09/13 02:06:36;;;;;;;6.55;4.75;;;;;;;;;;5070794;28;20237;-17
2022/09/13 02:09:04;;;;;;;7.18;4.82;;;;;;;;;;5070750;28;21087;-17
2022/09/13 02:11:32;;;;;;;5.32;4.28;;;;;;;;;;5072688;28;20229;-17
2022/09/13 02:14:00;;;;;;;4.95;4.47;;;;;;;;;;5071055;28;20864;-17
2022/09/13 02:16:28;;;;;;;7.70;5.07;;;;;;;;;;5070626;28;20217;-17
2022/09/13 02:18:57;;;;;;;12.98;6.63;;;;;;;;;;5069707;28;20237;-17
2022/09/13 02:21:27;;;;;;;12.65;7.68;;;;;;;;;;5070782;28;20225;-16
2022/09/13 02:23:55;;;;;;;14.18;6.35;;;;;;;;;;5071355;28;20241;-17
2022/09/13 02:26:22;;;;;;;8.52;5.63;;;;;;;;;;5071093;28;21021;-18
2022/09/13 02:28:51;;;;;;;6.50;5.78;;;;;;;;;;5071575;28;20233;-16
2022/09/13 02:31:18;;;;;;;11.25;5.60;;;;;;;;;;5071481;28;20268;-15
2022/09/13 02:33:47;;;;;;;11.52;6.40;;;;;;;;;;5071218;28;20241;-15
2022/09/13 02:36:15;;;;;;;11.10;6.15;;;;;;;;;;5070485;28;20245;-16
2022/09/13 02:38:44;;;;;;;10.43;7.25;;;;;;;;;;5070583;28;20233;-16
2022/09/13 02:41:13;;;;;;;8.75;6.72;;;;;;;;;;5070711;28;20267;-16
2022/09/13 02:43:41;;;;;;;7.60;6.88;;;;;;;;;;5072670;28;20700;-16
2022/09/13 02:46:11;;;;;;;7.95;6.85;;;;;;;;;;5074257;28;20221;-16
2022/09/13 02:48:41;;;;;;;7.47;6.45;;;;;;;;;;5074017;28;20229;-16
2022/09/13 02:51:11;;;;;;;14.32;7.10;;;;;;;;;;5073523;28;20952;-15
2022/09/13 02:53:39;;;;;;;7.13;6.30;;;;;;;;;;5073198;28;20295;-16
2022/09/13 02:56:10;;;;;;;8.48;5.65;;;;;;;;;;5073959;28;20265;-16
2022/09/13 02:58:39;;;;;;;6.90;6.18;;;;;;;;;;5073823;28;20222;-15
2022/09/13 03:01:06;;;;;;;7.80;6.13;;;;;;;;;;5073403;28;20283;-16
2022/09/13 03:03:34;;;;;;;8.45;6.85;;;;;;;;;;5073991;28;20233;-15
2022/09/13 03:06:01;;;;;;;6.45;5.85;;;;;;;;;;5073183;28;20299;-16
2022/09/13 03:08:29;;;;;;;8.95;5.50;;;;;;;;;;5072617;28;20233;-16
2022/09/13 03:10:58;;;;;;;6.93;6.22;;;;;;;;;;5073720;28;20209;-16
2022/09/13 03:13:43;;;;;;;6.80;6.10;;;;;;;;;;5073721;28;20271;-15
2022/09/13 03:16:18;;;;;;;6.60;6.00;;;;;;;;;;5072555;28;20303;-16
2022/09/13 03:18:49;;;;;;;7.57;6.40;;;;;;;;;;5073645;28;20282;-16
2022/09/13 03:21:19;;;;;;;7.63;6.82;;;;;;;;;;5073446;28;20229;-16
2022/09/13 03:23:48;;;;;;;6.68;6.07;;;;;;;;;;5072504;28;20716;-16
2022/09/13 03:26:21;;;;;;;8.32;6.85;;;;;;;;;;5073486;28;20704;-16
2022/09/13 03:28:52;;;;;;;8.00;6.45;;;;;;;;;;5072925;28;20280;-16
2022/09/13 03:31:21;;;;;;;11.00;6.32;;;;;;;;;;5072210;28;20283;-16
2022/09/13 03:33:50;;;;;;;9.05;6.70;;;;;;;;;;5071613;28;20248;-16
2022/09/13 03:36:19;;;;;;;7.55;6.53;;;;;;;;;;5073267;28;20222;-15
2022/09/13 03:38:47;;;;;;;8.25;6.30;;;;;;;;;;5073551;28;20226;-16
2022/09/13 03:41:15;;;;;;;8.32;6.95;;;;;;;;;;5073237;28;20229;-16
2022/09/13 03:43:43;;;;;;;8.93;6.55;;;;;;;;;;5072739;28;20295;-16
2022/09/13 03:46:12;;;;;;;7.63;6.35;;;;;;;;;;5073326;28;20283;-16
2022/09/13 03:48:40;;;;;;;7.55;5.93;;;;;;;;;;5073427;28;20711;-15
2022/09/13 03:51:08;;;;;;;6.90;6.28;;;;;;;;;;5072278;28;20229;-16
2022/09/13 03:53:36;;;;;;;8.48;7.03;;;;;;;;;;5072847;28;20709;-16
2022/09/13 03:56:11;;;;;;;7.93;7.10;;;;;;;;;;5072939;28;20244;-16
2022/09/13 03:58:38;;;;;;;7.47;6.78;;;;;;;;;;5072104;28;20213;-16
2022/09/13 04:01:06;;;;;;;8.02;6.85;;;;;;;;;;5072467;28;20229;-16
2022/09/13 04:03:33;;;;;;;8.40;6.25;;;;;;;;;;5072681;28;20221;-16
2022/09/13 04:06:02;;;;;;;8.00;6.70;;;;;;;;;;5072886;28;20272;-16
2022/09/13 04:08:29;;;;;;;7.80;7.00;;;;;;;;;;5072366;28;20279;-16
2022/09/13 04:10:57;;;;;;;10.10;7.18;;;;;;;;;;5072708;28;20222;-16
2022/09/13 04:13:24;;;;;;;8.57;7.30;;;;;;;;;;5071971;28;20237;-15
2022/09/13 04:15:52;;;;;;;8.23;7.15;;;;;;;;;;5072275;28;20696;-16
2022/09/13 04:18:19;;;;;;;9.13;7.28;;;;;;;;;;5072707;28;20221;-16
2022/09/13 04:20:52;;;;;;;8.25;7.35;;;;;;;;;;5072666;28;20232;-16
2022/09/13 04:23:21;;;;;;;8.43;7.22;;;;;;;;;;5070857;28;20661;-16
2022/09/13 04:25:50;;;;;;;9.00;7.65;;;;;;;;;;5072624;28;20233;-16
2022/09/13 04:28:17;;;;;;;8.05;7.25;;;;;;;;;;5073099;28;20233;-16
2022/09/13 04:30:45;;;;;;;7.03;6.32;;;;;;;;;;5072286;28;20307;-16
2022/09/13 04:33:12;;;;;;;7.65;6.85;;;;;;;;;;5071910;28;20288;-15
2022/09/13 04:35:39;;;;;;;8.32;7.25;;;;;;;;;;5072345;28;20291;-15
2022/09/13 04:38:07;;;;;;;8.77;7.13;;;;;;;;;;5072043;28;20287;-16
2022/09/13 04:40:38;;;;;;;7.82;7.03;;;;;;;;;;5072037;28;20233;-15
2022/09/13 04:43:05;;;;;;;8.27;7.07;;;;;;;;;;5072002;28;20700;-16
2022/09/13 04:45:32;;;;;;;8.30;7.35;;;;;;;;;;5071467;28;20283;-16
2022/09/13 04:48:00;;;;;;;7.78;6.97;;;;;;;;;;5071742;28;20263;-16
2022/09/13 04:50:27;;;;;;;8.45;7.65;;;;;;;;;;5072369;28;20283;-16
2022/09/13 04:52:54;;;;;;;8.77;7.50;;;;;;;;;;5072520;28;20237;-16
2022/09/13 04:55:24;;;;;;;8.88;7.43;;;;;;;;;;5070748;28;20758;-16
2022/09/13 04:57:56;;;;;;;8.05;7.25;;;;;;;;;;5072225;28;20283;-16
2022/09/13 05:00:25;;;;;;;8.45;7.57;;;;;;;;;;5072123;28;20218;-15
2022/09/13 05:02:54;;;;;;;7.90;7.10;;;;;;;;;;5083782;28;20266;-15
2022/09/13 05:05:22;;;;;;;9.95;7.25;;;;;;;;;;5070882;28;20299;-16
2022/09/13 05:07:49;;;;;;;8.73;7.82;;;;;;;;;;5071569;28;20225;-15
2022/09/13 05:10:17;;;;;;;8.43;7.47;;;;;;;;;;5071799;28;20225;-16
2022/09/13 05:12:46;;;;;;;9.18;7.32;;;;;;;;;;5070773;28;20858;-15
2022/09/13 05:15:14;;;;;;;8.75;7.85;;;;;;;;;;5071419;28;20241;-15
2022/09/13 05:17:42;;;;;;;11.25;8.23;;;;;;;;;;5071322;28;20702;-15
2022/09/13 05:20:09;;;;;;;11.15;8.27;;;;;;;;;;5071303;28;21069;-16
2022/09/13 05:22:37;;;;;;;10.00;7.72;;;;;;;;;;5070879;28;20311;-16
2022/09/13 05:25:05;;;;;;;9.95;8.40;;;;;;;;;;5071399;28;20234;-16
2022/09/13 05:27:32;;;;;;;9.00;8.10;;;;;;;;;;5072052;28;20299;-16
2022/09/13 05:29:59;;;;;;;9.50;8.25;;;;;;;;;;5070734;28;20229;-16
2022/09/13 05:32:28;;;;;;;11.02;8.40;;;;;;;;;;5071190;28;20233;-15
2022/09/13 05:34:55;;;;;;;9.55;8.13;;;;;;;;;;5071090;28;20297;-15
2022/09/13 05:37:22;;;;;;;10.95;8.48;;;;;;;;;;5071057;28;20260;-15
2022/09/13 05:39:50;;;;;;;9.05;8.20;;;;;;;;;;5070674;28;20280;-15
2022/09/13 05:42:37;;;;;;;9.93;8.63;;;;;;;;;;5070461;28;20253;-15
2022/09/13 05:45:05;;;;;;;9.60;8.63;;;;;;;;;;5071422;28;20283;-15
2022/09/13 05:47:34;;;;;;;9.88;8.77;;;;;;;;;;5071062;28;20288;-16
2022/09/13 05:50:01;;;;;;;9.65;8.48;;;;;;;;;;5071029;28;20249;-16
2022/09/13 05:52:38;;;;;;;8.75;7.85;;;;;;;;;;5051012;28;20317;-16
2022/09/13 05:55:05;;;;;;;10.07;7.93;;;;;;;;;;5050949;28;20214;-16
2022/09/13 05:57:32;;;;;;;9.20;7.80;;;;;;;;;;5052622;28;20215;-16
2022/09/13 06:00:00;;;;;;;9.23;7.65;;;;;;;;;;5070975;28;20228;-14
2022/09/13 06:02:27;;;;;;;9.80;8.63;;;;;;;;;;5069887;28;20390;-15
2022/09/13 06:04:56;;;;;;;8.77;7.75;;;;;;;;;;5071034;28;20228;-14
2022/09/13 06:07:23;;;;;;;8.35;7.50;;;;;;;;;;5070824;28;20214;-15
2022/09/13 06:09:51;;;;;;;9.68;7.85;;;;;;;;;;5070880;28;20229;-17
2022/09/13 06:12:19;;;;;;;10.57;7.97;;;;;;;;;;5070295;28;20279;-16
2022/09/13 06:14:46;;;;;;;8.68;7.07;;;;;;;;;;5070333;28;21083;-17
2022/09/13 06:17:13;;;;;;;7.75;6.63;;;;;;;;;;5070576;28;20222;-17
2022/09/13 06:19:41;;;;;;;8.75;7.90;;;;;;;;;;5070702;28;20234;-17
2022/09/13 06:22:09;;;;;;;8.85;7.82;;;;;;;;;;5070043;28;20291;-17
2022/09/13 06:24:37;;;;;;;8.18;7.40;;;;;;;;;;5065549;28;20287;-16
2022/09/13 06:27:04;;;;;;;8.65;7.15;;;;;;;;;;5070451;28;20283;-16
2022/09/13 06:29:32;;;;;;;7.80;7.00;;;;;;;;;;5070717;28;20233;-17
2022/09/13 06:31:59;;;;;;;7.88;7.07;;;;;;;;;;5069653;28;20225;-16
2022/09/13 06:34:27;;;;;;;8.27;7.45;;;;;;;;;;5070093;28;20284;-17
2022/09/13 06:36:57;;;;;;;10.05;7.07;;;;;;;;;;5070110;28;20240;-17
2022/09/13 06:39:26;;;;;;;9.77;7.05;;;;;;;;;;5069947;28;20233;-17
2022/09/13 06:41:53;;;;;;;7.45;6.75;;;;;;;;;;5070116;28;20229;-17
2022/09/13 06:44:22;;;;;;;16.35;7.50;;;;;;;;;;5070243;28;20225;-16
2022/09/13 06:46:49;;;;;;;10.60;7.07;;;;;;;;;;5070058;28;20894;-16
2022/09/13 06:49:16;;;;;;;9.73;7.35;;;;;;;;;;5070023;28;20229;-17
2022/09/13 06:51:44;;;;;;;12.98;7.63;;;;;;;;;;5068747;28;21017;-17
2022/09/13 06:54:11;;;;;;;12.30;7.60;;;;;;;;;;5070330;28;20241;-17
2022/09/13 06:56:40;;;;;;;8.85;7.07;;;;;;;;;;5069750;28;20245;-16
2022/09/13 06:59:07;;;;;;;20.35;7.60;;;;;;;;;;5069953;28;20318;-16
2022/09/13 07:01:35;;;;;;;15.85;7.47;;;;;;;;;;5070177;28;20226;-15
2022/09/13 07:04:03;;;;;;;12.52;7.30;;;;;;;;;;5070415;28;20224;-16
2022/09/13 07:06:31;;;;;;;9.68;6.10;;;;;;;;;;5069980;28;20303;-16
2022/09/13 07:08:59;;;;;;;11.05;6.32;;;;;;;;;;5071543;28;20931;-17
2022/09/13 07:11:27;;;;;;;14.20;6.07;;;;;;;;;;5071074;28;20311;-17
2022/09/13 07:13:56;;;;;;;11.52;5.97;;;;;;;;;;5069973;28;20230;-16
2022/09/13 07:16:24;;;;;;;12.20;6.30;;;;;;;;;;5069440;28;21432;-17
2022/09/13 07:18:52;;;;;;;7.65;6.32;;;;;;;;;;5069541;28;20230;-16
2022/09/13 07:21:19;;;;;;;9.63;6.45;;;;;;;;;;5070132;28;20221;-16
2022/09/13 07:23:47;;;;;;;10.02;6.93;;;;;;;;;;5069367;28;20245;-17
2022/09/13 07:26:14;;;;;;;8.52;7.28;;;;;;;;;;5070174;28;20217;-16
2022/09/13 07:28:42;;;;;;;9.25;6.47;;;;;;;;;;5071716;28;20287;-17
2022/09/13 07:31:11;;;;;;;13.20;6.72;;;;;;;;;;5073184;28;20253;-17
2022/09/13 07:33:39;;;;;;;12.93;7.53;;;;;;;;;;5073785;28;20224;-17
2022/09/13 07:36:07;;;;;;;7.25;6.50;;;;;;;;;;5073560;28;20229;-17
2022/09/13 07:38:34;;;;;;;8.25;6.93;;;;;;;;;;5073624;28;20221;-16
2022/09/13 07:41:01;;;;;;;9.60;6.68;;;;;;;;;;5072057;28;20304;-16
2022/09/13 07:43:29;;;;;;;11.68;7.28;;;;;;;;;;5073455;28;20952;-15
2022/09/13 07:45:57;;;;;;;8.32;6.65;;;;;;;;;;5078608;28;20699;-16
2022/09/13 07:48:27;;;;;;;15.25;7.00;;;;;;;;;;5080831;28;20223;-17
2022/09/13 07:51:00;;;;;;;12.25;7.00;;;;;;;;;;5072461;28;20224;-16
2022/09/13 07:53:27;;;;;;;11.02;7.22;;;;;;;;;;5072685;28;20218;-16
2022/09/13 07:55:54;;;;;;;12.63;6.65;;;;;;;;;;5072643;28;20307;-16
2022/09/13 07:58:22;;;;;;;14.35;6.78;;;;;;;;;;5072994;28;20876;-16
2022/09/13 08:00:49;;;;;;;14.30;7.18;;;;;;;;;;5073876;28;20275;-16
2022/09/13 08:03:16;;;;;;;10.50;7.18;;;;;;;;;;5072829;28;20230;-17
2022/09/13 08:05:45;;;;;;;9.68;7.32;;;;;;;;;;5072714;28;20225;-17
2022/09/13 08:08:12;;;;;;;10.27;7.00;;;;;;;;;;5072903;28;20230;-16
2022/09/13 08:10:39;;;;;;;8.77;6.47;;;;;;;;;;5073420;28;20230;-16
2022/09/13 08:13:07;;;;;;;8.55;6.70;;;;;;;;;;5071786;28;21113;-16
2022/09/13 08:15:34;;;;;;;11.55;7.50;;;;;;;;;;5072624;28;20233;-16
2022/09/13 08:18:01;;;;;;;9.77;6.60;;;;;;;;;;5070412;28;20229;-16
2022/09/13 08:20:29;;;;;;;7.88;7.07;;;;;;;;;;5071884;28;20217;-17
2022/09/13 08:22:57;;;;;;;8.18;7.20;;;;;;;;;;5071985;28;20806;-16
2022/09/13 08:25:26;;;;;;;8.40;6.70;;;;;;;;;;5071560;28;20279;-16
2022/09/13 08:27:53;;;;;;;9.77;6.72;;;;;;;;;;5072132;28;20275;-17
2022/09/13 08:30:21;;;;;;;8.05;6.10;;;;;;;;;;5070434;28;20252;-16
2022/09/13 08:32:49;;;;;;;9.10;7.13;;;;;;;;;;5070736;28;20224;-17
2022/09/13 08:35:17;;;;;;;8.10;6.93;;;;;;;;;;5070847;28;20358;-16
2022/09/13 08:37:44;;;;;;;13.98;7.00;;;;;;;;;;5072149;28;20226;-16
2022/09/13 08:40:13;;;;;;;11.00;6.47;;;;;;;;;;5070825;28;20237;-17
2022/09/13 08:42:46;;;;;;;10.85;7.10;;;;;;;;;;5071749;28;20951;-17
2022/09/13 08:45:13;;;;;;;8.77;7.35;;;;;;;;;;5071857;28;20225;-17
2022/09/13 08:47:41;;;;;;;9.60;6.75;;;;;;;;;;5072209;28;21041;-16
2022/09/13 08:50:13;;;;;;;10.38;7.20;;;;;;;;;;5072779;28;20271;-17
2022/09/13 08:52:41;;;;;;;9.43;6.85;;;;;;;;;;5072369;28;20758;-16
2022/09/13 08:55:15;;;;;;;13.57;6.80;;;;;;;;;;5072123;28;20218;-17
2022/09/13 08:57:43;;;;;;;11.70;6.13;;;;;;;;;;5071036;28;20712;-16
2022/09/13 09:00:13;;;;;;;12.05;6.82;;;;;;;;;;5071094;28;20287;-17
2022/09/13 09:02:48;;;;;;;8.05;5.50;;;;;;;;;;5071163;28;20237;-17
2022/09/13 09:05:16;;;;;;;9.25;6.15;;;;;;;;;;5071605;28;21260;-16
2022/09/13 09:07:44;;;;;;;13.40;5.80;;;;;;;;;;5071139;28;20931;-16
2022/09/13 09:10:15;;;;;;;15.98;6.40;;;;;;;;;;5071841;28;21066;-16
2022/09/13 09:12:43;;;;;;;10.57;5.95;;;;;;;;;;5070998;28;20233;-17
2022/09/13 09:15:13;;;;;;;15.95;6.25;;;;;;;;;;5071341;28;20234;-15
2022/09/13 09:17:42;;;;;;;14.95;5.47;;;;;;;;;;5071432;28;20284;-17
2022/09/13 09:20:16;;;;;;;7.93;5.63;;;;;;;;;;5070916;28;20299;-17
2022/09/13 09:22:43;;;;;;;12.50;4.78;;;;;;;;;;5070248;28;20241;-17
2022/09/13 09:25:11;;;;;;;10.90;5.07;;;;;;;;;;5071301;28;20346;-17
2022/09/13 09:27:39;;;;;;;10.80;5.65;;;;;;;;;;5071873;28;20275;-17
2022/09/13 09:30:12;;;;;;;7.85;4.47;;;;;;;;;;5070999;28;20640;-17
2022/09/13 09:32:53;;;;;;;8.68;4.63;;;;;;;;;;5071213;28;20314;-16
2022/09/13 09:35:26;;;;;;;9.80;5.10;;;;;;;;;;5072343;28;20213;-17
2022/09/13 09:37:57;;;;;;;13.38;4.60;;;;;;;;;;5072199;28;20945;-17
2022/09/13 09:40:25;;;;;;;11.15;4.18;;;;;;;;;;5071155;28;20302;-16
2022/09/13 09:42:59;;;;;;;11.90;4.07;;;;;;;;;;5072058;28;20251;-17
2022/09/13 09:45:27;;;;;;;7.78;4.28;;;;;;;;;;5070911;28;20218;-17
2022/09/13 09:47:54;;;;;;;12.93;4.60;;;;;;;;;;5071114;28;20237;-17
2022/09/13 09:50:22;;;;;;;14.60;4.20;;;;;;;;;;5071549;28;20272;-17
2022/09/13 09:52:52;;;;;;;29.17;5.07;;;;;;;;;;5070932;28;20237;-17
2022/09/13 09:55:23;;;;;;;20.30;4.55;;;;;;;;;;5080638;28;20672;-17
2022/09/13 09:57:52;;;;;;;31.33;5.88;;;;;;;;;;5071428;28;21183;-17
2022/09/13 10:00:21;;;;;;;27.98;5.25;;;;;;;;;;5061299;28;20238;-16
2022/09/13 10:02:48;;;;;;;42.22;5.50;;;;;;;;;;5069588;28;20675;-15
2022/09/13 10:05:18;;;;;;;27.23;5.72;;;;;;;;;;5070329;28;20237;-17
2022/09/13 10:07:50;;;;;;;22.00;4.88;;;;;;;;;;5070609;28;20233;-17
2022/09/13 10:10:20;;;;;;;29.77;4.88;;;;;;;;;;5069374;28;20229;-17
2022/09/13 10:12:48;;;;;;;19.00;4.93;;;;;;;;;;5071249;28;20267;-17
2022/09/13 10:15:17;;;;;;;24.58;4.40;;;;;;;;;;5070030;28;20263;-16
2022/09/13 10:17:46;;;;;;;14.82;3.63;;;;;;;;;;5070392;28;20233;-16
2022/09/13 10:20:22;;;;;;;12.00;3.75;;;;;;;;;;5068863;28;20229;-17
2022/09/13 10:23:09;;;;;;;17.23;4.35;;;;;;;;;;5071006;28;20241;-16
2022/09/13 10:25:37;;;;;;;17.67;3.97;;;;;;;;;;5081395;28;20823;-17
2022/09/13 10:28:04;;;;;;;19.35;3.65;;;;;;;;;;5088644;28;20298;-17
2022/09/13 10:30:32;;;;;;;8.77;3.47;;;;;;;;;;5088032;28;20229;-17
2022/09/13 10:33:01;;;;;;;24.35;3.80;;;;;;;;;;5091162;28;20287;-16
2022/09/13 10:35:29;;;;;;;19.23;4.35;;;;;;;;;;5083331;28;20233;-17
2022/09/13 10:37:56;;;;;;;15.93;3.72;;;;;;;;;;5071395;28;20275;-17
2022/09/13 10:40:25;;;;;;;15.00;3.03;;;;;;;;;;5074941;28;20232;-17
2022/09/13 10:42:53;;;;;;;19.70;4.10;;;;;;;;;;5089688;28;20226;-17
2022/09/13 10:45:22;;;;;;;17.70;3.30;;;;;;;;;;5071842;28;20245;-16
2022/09/13 10:47:49;;;;;;;12.65;3.10;;;;;;;;;;5079675;28;21102;-16
2022/09/13 10:50:21;;;;;;;17.10;3.22;;;;;;;;;;5089051;28;20321;-15
2022/09/13 10:52:49;;;;;;;13.52;2.95;;;;;;;;;;5067310;28;20283;-16
2022/09/13 10:55:30;;;;;;;13.20;3.40;;;;;;;;;;5069267;28;20245;-16
2022/09/13 10:58:13;;;;;;;11.50;3.10;;;;;;;;;;5069730;28;20291;-15
2022/09/13 11:00:44;;;;;;;6.28;2.40;;;;;;;;;;5069143;28;20283;-16
2022/09/13 11:03:13;;;;;;;14.23;3.20;;;;;;;;;;5072028;28;20249;-17
2022/09/13 11:05:43;;;;;;;9.18;2.50;;;;;;;;;;5073430;28;20283;-17
2022/09/13 11:08:13;;;;;;;12.30;2.72;;;;;;;;;;5072473;28;20292;-16
2022/09/13 11:10:43;;;;;;;7.53;2.47;;;;;;;;;;5053273;28;20241;-16
2022/09/13 11:13:14;;;;;;;12.82;2.70;;;;;;;;;;5068811;28;20704;-16
2022/09/13 11:15:44;;;;;;;11.63;2.80;;;;;;;;;;5073184;28;20627;-15
2022/09/13 11:18:20;;;;;;;13.02;2.75;;;;;;;;;;5074385;28;20233;-16
2022/09/13 11:20:51;;;;;;;8.57;2.38;;;;;;;;;;5076436;28;20233;-16
2022/09/13 11:23:23;;;;;;;43.70;2.65;;;;;;;;;;5089333;28;20244;-16
2022/09/13 11:26:00;;;;;;;7.55;2.30;;;;;;;;;;5092049;28;20225;-15
2022/09/13 11:28:29;;;;;;;7.47;2.17;;;;;;;;;;5086860;28;20228;-16
2022/09/13 11:31:01;;;;;;;8.35;2.53;;;;;;;;;;5091006;28;20271;-16
2022/09/13 11:33:32;;;;;;;9.98;1.88;;;;;;;;;;5093366;28;20221;-17
2022/09/13 11:36:10;;;;;;;4.85;1.60;;;;;;;;;;5081276;28;20307;-15
2022/09/13 11:38:41;;;;;;;7.50;1.70;;;;;;;;;;5073202;28;20240;-16
2022/09/13 11:41:12;;;;;;;4.55;1.70;;;;;;;;;;5052747;28;21032;-16
2022/09/13 11:43:46;;;;;;;3.72;1.80;;;;;;;;;;5062851;28;20252;-16
2022/09/13 11:46:14;;;;;;;4.55;1.90;;;;;;;;;;5072841;28;20218;-16
2022/09/13 11:48:52;;;;;;;1.98;1.58;;;;;;;;;;5073082;28;20224;-15
2022/09/13 11:51:24;;;;;;;6.45;1.52;;;;;;;;;;5071829;28;20307;-16
2022/09/13 11:53:55;;;;;;;8.57;1.85;;;;;;;;;;5071092;28;20665;-16
2022/09/13 11:56:24;;;;;;;5.60;1.95;;;;;;;;;;5072314;28;20241;-16
2022/09/13 11:58:51;;;;;;;5.72;1.70;;;;;;;;;;5072490;28;20299;-15
2022/09/13 12:01:20;;;;;;;4.20;2.25;;;;;;;;;;5071470;28;20299;-15
2022/09/13 12:03:49;;;;;;;2.70;1.73;;;;;;;;;;5070901;28;20383;-16
2022/09/13 12:06:19;;;;;;;10.50;1.88;;;;;;;;;;5072012;28;20254;-16
2022/09/13 12:08:48;;;;;;;3.63;1.75;;;;;;;;;;5072625;28;20900;-16
2022/09/13 12:11:18;;;;;;;2.80;1.63;;;;;;;;;;5072216;28;20685;-16
2022/09/13 12:13:46;;;;;;;4.93;2.00;;;;;;;;;;5067198;28;20284;-16
2022/09/13 12:16:15;;;;;;;4.70;1.90;;;;;;;;;;5070476;28;20773;-16
2022/09/13 12:18:43;;;;;;;4.93;2.05;;;;;;;;;;5068503;28;20720;-16
2022/09/13 12:21:11;;;;;;;2.58;1.50;;;;;;;;;;5071659;28;20222;-16
2022/09/13 12:23:38;;;;;;;6.82;1.85;;;;;;;;;;5070311;28;20250;-16
2022/09/13 12:26:09;;;;;;;3.75;1.58;;;;;;;;;;5069258;28;20241;-16
2022/09/13 12:28:37;;;;;;;9.05;2.20;;;;;;;;;;5071325;28;20291;-15
2022/09/13 12:31:05;;;;;;;9.25;2.20;;;;;;;;;;5070763;28;20700;-16
2022/09/13 12:33:32;;;;;;;12.52;2.05;;;;;;;;;;5071668;28;20226;-17
2022/09/13 12:36:10;;;;;;;7.75;1.90;;;;;;;;;;5072046;28;20229;-16
2022/09/13 12:38:50;;;;;;;11.15;1.88;;;;;;;;;;5052987;28;20222;-16
2022/09/13 12:41:22;;;;;;;12.07;1.95;;;;;;;;;;5072002;28;20229;-19
2022/09/13 12:43:56;;;;;;;9.52;1.88;;;;;;;;;;5072131;28;20858;-16
2022/09/13 12:46:30;;;;;;;8.13;1.80;;;;;;;;;;5071693;28;21209;-16
2022/09/13 12:49:02;;;;;;;14.50;2.70;;;;;;;;;;5071444;28;20233;-16
2022/09/13 12:51:33;;;;;;;6.85;1.67;;;;;;;;;;5071895;28;20213;-16
2022/09/13 12:54:11;;;;;;;11.80;1.98;;;;;;;;;;5087565;28;21309;-16
2022/09/13 12:56:54;;;;;;;8.00;1.83;;;;;;;;;;5089759;28;20786;-16
2022/09/13 12:59:43;;;;;;;7.97;1.80;;;;;;;;;;5080486;28;20233;-16
2022/09/13 13:02:27;;;;;;;8.88;1.42;;;;;;;;;;5071478;28;20861;-16
2022/09/13 13:04:56;;;;;;;7.95;1.45;;;;;;;;;;5072148;28;20221;-16
2022/09/13 13:07:23;;;;;;;6.63;1.23;;;;;;;;;;5071072;28;20225;-16
2022/09/13 13:09:52;;;;;;;6.70;1.30;;;;;;;;;;5071679;28;20238;-16
2022/09/13 13:12:27;;;;;;;2.95;1.00;;;;;;;;;;5072621;28;20222;-16
2022/09/13 13:14:55;;;;;;;16.50;2.28;;;;;;;;;;5071166;28;20279;-15
2022/09/13 13:17:49;;;;;;;8.13;1.85;;;;;;;;;;5070927;28;20653;-16
2022/09/13 13:20:36;;;;;;;10.32;2.05;;;;;;;;;;5022958;28;20238;-15
2022/09/13 13:23:03;;;;;;;3.92;1.25;;;;;;;;;;5070966;28;20327;-16
2022/09/13 13:25:32;;;;;;;6.00;1.70;;;;;;;;;;5070305;28;20226;-16
2022/09/13 13:28:00;;;;;;;10.30;1.23;;;;;;;;;;5071622;28;20288;-15
2022/09/13 13:30:41;;;;;;;5.25;1.15;;;;;;;;;;5071535;28;20218;-16
2022/09/13 13:33:13;;;;;;;14.05;1.80;;;;;;;;;;5070087;28;20241;-15
2022/09/13 13:35:40;;;;;;;6.25;1.35;;;;;;;;;;5072658;28;20275;-16
2022/09/13 13:38:14;;;;;;;5.25;1.55;;;;;;;;;;5071409;28;20675;-15
2022/09/13 13:40:41;;;;;;;4.82;1.25;;;;;;;;;;5071705;28;20693;-15
2022/09/13 13:43:17;;;;;;;8.68;1.75;;;;;;;;;;5071147;28;20766;-15
2022/09/13 13:45:57;;;;;;;3.42;1.42;;;;;;;;;;5072029;28;20758;-16
2022/09/13 13:48:34;;;;;;;4.10;1.17;;;;;;;;;;5070909;28;20287;-16
2022/09/13 13:51:18;;;;;;;3.75;1.10;;;;;;;;;;5070965;28;20221;-16
2022/09/13 13:53:48;;;;;;;2.55;0.85;;;;;;;;;;5070216;28;20256;-15
2022/09/13 13:56:18;;;;;;;4.18;1.10;;;;;;;;;;5070874;28;20271;-16
2022/09/13 13:58:47;;;;;;;3.65;0.98;;;;;;;;;;5070139;28;20218;-16
2022/09/13 14:01:16;;;;;;;3.92;1.15;;;;;;;;;;5070648;28;20291;-16
2022/09/13 14:03:50;;;;;;;2.78;0.90;;;;;;;;;;5070103;28;20290;-16
2022/09/13 14:06:17;;;;;;;4.70;1.10;;;;;;;;;;5070181;28;20234;-16
2022/09/13 14:08:46;;;;;;;3.90;1.00;;;;;;;;;;5070531;28;20290;-24
2022/09/13 14:11:16;;;;;;;5.78;1.05;;;;;;;;;;5070515;28;21085;-16
2022/09/13 14:13:46;;;;;;;5.32;1.23;;;;;;;;;;5070793;28;20279;-16
2022/09/13 14:16:17;;;;;;;1.75;0.90;;;;;;;;;;5070758;28;20303;-16
2022/09/13 14:18:57;;;;;;;4.03;1.20;;;;;;;;;;5070428;28;20939;-16
2022/09/13 14:21:25;;;;;;;4.45;0.95;;;;;;;;;;5070720;28;20298;-16
2022/09/13 14:24:07;;;;;;;4.35;1.15;;;;;;;;;;5069368;28;20291;-17
2022/09/13 14:26:34;;;;;;;1.30;0.85;;;;;;;;;;5069788;28;20237;-16
2022/09/13 14:29:05;;;;;;;2.72;0.95;;;;;;;;;;5070526;28;20692;-16
2022/09/13 14:31:34;;;;;;;2.60;0.85;;;;;;;;;;5069937;28;20375;-17
2022/09/13 14:34:01;;;;;;;3.72;0.88;;;;;;;;;;5069601;28;20406;-16
2022/09/13 14:36:28;;;;;;;5.22;0.80;;;;;;;;;;5070242;28;20713;-17
2022/09/13 14:38:57;;;;;;;3.28;1.08;;;;;;;;;;5072287;28;20229;-17
2022/09/13 14:41:29;;;;;;;1.80;1.00;;;;;;;;;;5074537;28;20288;-17
2022/09/13 14:44:02;;;;;;;3.63;1.02;;;;;;;;;;5057163;28;20230;-16
2022/09/13 14:46:31;;;;;;;3.70;1.02;;;;;;;;;;5072741;28;20307;-17
2022/09/13 14:49:00;;;;;;;1.58;0.75;;;;;;;;;;5073004;28;20281;-17
2022/09/13 14:51:28;;;;;;;1.58;0.60;;;;;;;;;;5074056;28;20276;-17
2022/09/13 14:53:55;;;;;;;4.38;0.80;;;;;;;;;;5074315;28;20237;-17